Time;durP1;ratioP1;P1;durP2;ratioP2;P2;SDS_P1;SDS_P2;PMS_P1;PMS_P2;Temp;Humidity;BMP_temperature;BMP_pressure;BME280_temperature;BME280_humidity;BME280_pressure;Samples;Min_cycle;Max_cycle;Signal;HPM_P1;HPM_P2
2023/10/15 00:00:29;;;;;;;7.07;3.33;;;4.90;99.90;;;;;;2074064;28;20230;-87
2023/10/15 00:01:30;;;;;;;8.13;2.83;;;4.80;99.90;;;;;;2073566;28;20240;-87
2023/10/15 00:02:31;;;;;;;8.93;3.30;;;4.70;99.90;;;;;;2077379;28;20239;-88
2023/10/15 00:03:33;;;;;;;6.18;3.28;;;4.70;99.90;;;;;;2084562;28;20257;-87
2023/10/15 00:04:35;;;;;;;5.40;2.65;;;4.80;99.90;;;;;;2090746;28;20242;-87
2023/10/15 00:05:35;;;;;;;4.97;2.88;;;4.90;99.90;;;;;;2090469;28;20227;-88
2023/10/15 00:06:36;;;;;;;7.03;3.10;;;4.90;99.90;;;;;;2094298;28;20577;-88
2023/10/15 00:07:36;;;;;;;6.07;2.77;;;5.00;99.90;;;;;;2075056;28;20228;-87
2023/10/15 00:08:37;;;;;;;7.13;3.10;;;5.00;99.90;;;;;;2073816;28;20733;-88
2023/10/15 00:09:39;;;;;;;7.10;2.80;;;4.90;99.90;;;;;;2082094;28;20587;-87
2023/10/15 00:10:40;;;;;;;4.20;2.70;;;4.90;99.90;;;;;;2082336;28;20231;-88
2023/10/15 00:11:41;;;;;;;7.00;3.17;;;4.90;99.90;;;;;;2082774;28;20239;-87
2023/10/15 00:12:43;;;;;;;6.20;2.97;;;4.90;99.90;;;;;;2085054;28;20263;-87
2023/10/15 00:13:44;;;;;;;4.30;2.22;;;4.70;99.90;;;;;;2077499;28;20283;-88
2023/10/15 00:14:45;;;;;;;8.57;2.78;;;4.70;99.90;;;;;;2074032;28;20310;-87
2023/10/15 00:15:45;;;;;;;4.53;3.00;;;4.70;99.90;;;;;;2080803;28;20286;-88
2023/10/15 00:16:47;;;;;;;12.13;2.70;;;4.70;99.90;;;;;;2088208;28;20715;-87
2023/10/15 00:17:53;;;;;;;5.53;2.30;;;4.70;99.90;;;;;;2091875;28;20227;-86
2023/10/15 00:18:53;;;;;;;6.68;2.45;;;4.80;99.90;;;;;;2088793;28;20235;-88
2023/10/15 00:19:55;;;;;;;4.87;2.40;;;4.80;99.90;;;;;;2081448;28;20227;-87
2023/10/15 00:21:01;;;;;;;7.47;2.60;;;4.80;99.90;;;;;;2077464;28;20236;-88
2023/10/15 00:22:03;;;;;;;4.53;2.47;;;4.80;99.90;;;;;;2082953;28;20259;-88
2023/10/15 00:23:06;;;;;;;4.90;2.20;;;4.80;99.90;;;;;;2090428;28;20195;-87
2023/10/15 00:24:10;;;;;;;6.82;2.88;;;4.80;99.90;;;;;;2086167;28;20200;-87
2023/10/15 00:25:14;;;;;;;4.40;2.80;;;4.80;99.90;;;;;;2081640;28;20204;-88
2023/10/15 00:26:15;;;;;;;4.53;2.47;;;4.90;99.90;;;;;;2080329;28;20282;-88
2023/10/15 00:27:17;;;;;;;5.70;2.60;;;4.90;99.90;;;;;;2080497;28;20693;-87
2023/10/15 00:28:18;;;;;;;6.53;2.58;;;4.80;99.90;;;;;;2080466;28;20199;-88
2023/10/15 00:29:18;;;;;;;5.10;2.57;;;4.80;99.90;;;;;;2084341;28;20242;-88
2023/10/15 00:30:19;;;;;;;5.30;2.47;;;4.80;99.90;;;;;;2081111;28;20204;-88
2023/10/15 00:31:20;;;;;;;4.70;2.47;;;4.80;99.90;;;;;;2085520;28;20248;-88
2023/10/15 00:32:22;;;;;;;4.33;2.57;;;4.90;99.90;;;;;;2085163;28;20279;-88
2023/10/15 00:33:22;;;;;;;5.72;2.50;;;4.90;99.90;;;;;;2084706;28;21750;-88
2023/10/15 00:34:23;;;;;;;4.97;2.27;;;5.00;99.90;;;;;;2091965;28;20242;-88
2023/10/15 00:35:25;;;;;;;5.43;2.30;;;5.00;99.90;;;;;;2084329;28;20277;-89
2023/10/15 00:36:27;;;;;;;4.22;2.20;;;4.80;99.90;;;;;;2101215;28;20227;-88
2023/10/15 00:37:28;;;;;;;5.60;2.13;;;4.80;99.90;;;;;;2086638;28;20239;-88
2023/10/15 00:38:28;;;;;;;6.77;2.13;;;4.90;99.90;;;;;;2085643;28;20760;-87
2023/10/15 00:39:30;;;;;;;6.10;2.30;;;5.00;99.90;;;;;;2081978;28;20227;-87
2023/10/15 00:40:30;;;;;;;4.13;1.80;;;5.10;99.90;;;;;;2082990;28;20231;-88
2023/10/15 00:41:31;;;;;;;3.57;1.90;;;5.00;99.90;;;;;;2083220;28;20264;-87
2023/10/15 00:42:31;;;;;;;6.47;2.10;;;5.00;99.90;;;;;;2073574;28;20237;-87
2023/10/15 00:43:32;;;;;;;4.20;1.90;;;5.00;99.90;;;;;;2075976;28;20251;-87
2023/10/15 00:44:33;;;;;;;3.17;1.80;;;5.00;99.90;;;;;;2082357;28;20235;-87
2023/10/15 00:45:39;;;;;;;5.28;2.00;;;5.00;99.90;;;;;;2077560;28;20262;-87
2023/10/15 00:46:41;;;;;;;4.78;1.95;;;4.90;99.90;;;;;;2059695;28;20293;-88
2023/10/15 00:47:43;;;;;;;3.90;1.70;;;4.90;99.90;;;;;;2065681;28;20224;-88
2023/10/15 00:48:45;;;;;;;3.13;1.80;;;4.90;99.90;;;;;;2080852;28;20226;-88
2023/10/15 00:49:46;;;;;;;6.85;1.73;;;4.90;99.90;;;;;;2082047;28;20229;-88
2023/10/15 00:50:47;;;;;;;3.23;1.60;;;4.80;99.90;;;;;;2082397;28;20316;-87
2023/10/15 00:51:48;;;;;;;2.88;1.80;;;4.70;99.90;;;;;;2088017;28;20801;-88
2023/10/15 00:52:49;;;;;;;3.03;1.77;;;4.60;99.90;;;;;;2088281;28;20224;-87
2023/10/15 00:53:58;;;;;;;6.70;1.95;;;4.60;99.90;;;;;;2083341;28;20297;-88
2023/10/15 00:54:59;;;;;;;6.70;1.98;;;4.70;99.90;;;;;;2082234;28;20386;-87
2023/10/15 00:56:03;;;;;;;4.43;2.20;;;4.60;99.90;;;;;;2073908;28;20236;-88
2023/10/15 00:59:45;;;;;;;4.43;1.95;;;4.60;99.90;;;;;;2091134;28;20976;-87
2023/10/15 01:00:53;;;;;;;5.80;2.20;;;4.70;99.90;;;;;;2076616;28;20630;-88
2023/10/15 01:02:05;;;;;;;7.82;2.58;;;4.80;99.90;;;;;;2077627;28;20648;-87
2023/10/15 01:03:07;;;;;;;2.83;2.00;;;4.80;99.90;;;;;;2082968;28;20247;-88
2023/10/15 01:04:15;;;;;;;5.72;2.10;;;4.80;99.90;;;;;;2077940;28;20215;-88
2023/10/15 01:05:16;;;;;;;5.85;2.25;;;4.80;99.90;;;;;;2085283;28;20188;-87
2023/10/15 01:07:46;;;;;;;7.80;2.30;;;4.90;99.90;;;;;;2093061;28;20240;-88
2023/10/15 01:08:47;;;;;;;4.90;2.00;;;5.00;99.90;;;;;;2090364;28;20637;-88
2023/10/15 01:09:47;;;;;;;9.63;2.73;;;5.10;99.90;;;;;;2081781;28;20291;-88
2023/10/15 01:10:53;;;;;;;3.83;1.80;;;5.30;99.90;;;;;;2078562;28;20239;-87
2023/10/15 01:11:57;;;;;;;4.40;2.00;;;5.30;99.90;;;;;;2082968;28;20224;-88
2023/10/15 01:13:05;;;;;;;7.38;2.58;;;5.40;99.90;;;;;;2081625;28;20252;-87
2023/10/15 01:14:10;;;;;;;4.75;2.22;;;5.30;99.90;;;;;;2088671;28;20234;-88
2023/10/15 01:15:11;;;;;;;2.53;2.03;;;5.40;99.90;;;;;;2082742;28;20330;-88
2023/10/15 01:16:17;;;;;;;5.10;2.30;;;5.50;99.90;;;;;;2073891;28;20189;-87
2023/10/15 01:17:23;;;;;;;8.13;2.60;;;5.40;99.90;;;;;;2085123;28;20194;-88
2023/10/15 01:18:24;;;;;;;5.43;2.38;;;5.30;99.90;;;;;;2090395;28;20243;-88
2023/10/15 01:19:32;;;;;;;4.70;2.30;;;5.30;99.90;;;;;;2082778;28;20251;-87
2023/10/15 01:20:36;;;;;;;4.60;2.10;;;5.40;99.90;;;;;;2089718;28;20273;-87
2023/10/15 01:21:57;;;;;;;6.70;2.30;;;5.40;99.90;;;;;;2083956;28;20362;-87
2023/10/15 01:22:58;;;;;;;6.28;2.30;;;5.50;99.90;;;;;;2075825;28;20232;-88
2023/10/15 01:24:04;;;;;;;6.37;2.10;;;5.60;99.90;;;;;;2079252;28;20232;-88
2023/10/15 01:25:31;;;;;;;6.60;2.40;;;5.60;99.90;;;;;;2076018;28;20721;-88
2023/10/15 01:26:35;;;;;;;4.75;2.00;;;5.70;99.90;;;;;;2085511;28;20258;-87
2023/10/15 01:27:36;;;;;;;3.95;1.95;;;5.70;99.90;;;;;;2074169;28;20313;-88
2023/10/15 01:28:37;;;;;;;4.30;2.20;;;5.70;99.90;;;;;;2072428;28;20228;-87
2023/10/15 01:29:48;;;;;;;4.57;1.97;;;5.80;99.90;;;;;;2080961;28;20228;-87
2023/10/15 01:30:50;;;;;;;4.78;2.13;;;5.80;99.90;;;;;;2087522;28;20227;-88
2023/10/15 01:31:51;;;;;;;5.80;2.38;;;5.90;99.90;;;;;;2082696;28;20403;-87
2023/10/15 01:32:52;;;;;;;4.75;2.35;;;6.00;99.90;;;;;;2082992;28;20732;-87
2023/10/15 01:33:53;;;;;;;5.50;2.10;;;6.00;99.90;;;;;;2087036;28;20234;-89
2023/10/15 01:34:55;;;;;;;3.90;1.95;;;6.10;99.90;;;;;;2092959;28;20227;-88
2023/10/15 01:36:06;;;;;;;5.65;2.08;;;6.20;99.90;;;;;;2080325;28;20252;-89
2023/10/15 01:38:27;;;;;;;3.92;1.85;;;6.30;99.90;;;;;;2095222;28;20234;-88
2023/10/15 01:39:39;;;;;;;6.82;1.90;;;6.30;99.90;;;;;;2082330;28;20326;-87
2023/10/15 01:40:44;;;;;;;3.92;2.20;;;6.30;99.90;;;;;;2089860;28;20323;-88
2023/10/15 01:41:49;;;;;;;4.40;2.05;;;6.40;99.90;;;;;;2085255;28;20240;-88
2023/10/15 01:42:54;;;;;;;4.93;2.30;;;6.30;99.90;;;;;;2086234;28;20227;-88
2023/10/15 01:43:58;;;;;;;3.33;1.83;;;6.40;99.90;;;;;;2088418;28;20603;-88
2023/10/15 01:46:23;;;;;;;7.40;2.13;;;6.40;99.90;;;;;;2086890;28;20219;-88
2023/10/15 01:47:28;;;;;;;7.53;2.30;;;6.40;99.90;;;;;;2095067;28;20235;-88
2023/10/15 01:48:30;;;;;;;5.57;2.10;;;6.40;99.90;;;;;;2080309;28;20255;-87
2023/10/15 01:49:31;;;;;;;3.75;2.20;;;6.50;99.90;;;;;;2082895;28;20231;-87
2023/10/15 01:50:49;;;;;;;4.13;1.80;;;6.50;99.90;;;;;;2094906;28;20624;-88
2023/10/15 01:51:53;;;;;;;9.45;2.22;;;6.60;99.90;;;;;;2071914;28;20236;-88
2023/10/15 01:53:01;;;;;;;8.07;2.15;;;6.50;99.90;;;;;;2070134;28;20252;-88
2023/10/15 01:54:01;;;;;;;5.03;1.90;;;6.40;99.90;;;;;;2081315;28;20315;-88
2023/10/15 01:55:04;;;;;;;6.40;1.87;;;6.30;99.90;;;;;;2080843;28;20229;-87
2023/10/15 01:56:06;;;;;;;6.97;2.30;;;6.40;99.90;;;;;;2078638;28;20320;-87
2023/10/15 01:57:07;;;;;;;5.82;2.08;;;6.50;99.90;;;;;;2081739;28;20264;-88
2023/10/15 01:58:12;;;;;;;4.33;1.60;;;6.50;99.90;;;;;;2090842;28;20552;-87
2023/10/15 01:59:16;;;;;;;7.20;2.10;;;6.60;99.90;;;;;;2090855;28;20560;-87
2023/10/15 02:01:41;;;;;;;5.18;2.17;;;6.70;99.90;;;;;;2081104;28;20241;-89
2023/10/15 02:02:48;;;;;;;4.75;2.10;;;6.70;99.90;;;;;;2093129;28;20725;-87
2023/10/15 02:03:48;;;;;;;6.50;1.90;;;6.80;99.90;;;;;;2089016;28;20657;-88
2023/10/15 02:04:50;;;;;;;5.70;1.97;;;6.80;99.90;;;;;;2087650;28;20229;-87
2023/10/15 02:05:54;;;;;;;5.30;2.10;;;6.90;99.90;;;;;;2086613;28;20307;-88
2023/10/15 02:06:55;;;;;;;5.60;1.88;;;6.90;99.90;;;;;;2084668;28;20221;-88
2023/10/15 02:07:56;;;;;;;8.02;2.13;;;6.80;99.90;;;;;;2093133;28;20251;-87
2023/10/15 02:08:57;;;;;;;8.67;2.23;;;6.70;99.90;;;;;;2080820;28;20220;-88
2023/10/15 02:10:00;;;;;;;7.00;1.88;;;6.80;99.90;;;;;;2077914;28;20241;-87
2023/10/15 02:11:15;;;;;;;5.63;1.88;;;6.80;99.90;;;;;;2077282;28;20228;-88
2023/10/15 02:12:18;;;;;;;5.93;1.88;;;6.70;99.90;;;;;;2078115;28;20216;-88
2023/10/15 02:13:21;;;;;;;4.35;2.28;;;6.80;99.90;;;;;;2073936;28;20568;-88
2023/10/15 02:14:27;;;;;;;6.53;2.10;;;6.80;99.90;;;;;;2079281;28;20590;-87
2023/10/15 02:15:41;;;;;;;5.55;2.28;;;6.80;99.90;;;;;;2076974;28;20745;-87
2023/10/15 02:16:41;;;;;;;3.72;1.60;;;6.80;99.90;;;;;;2076218;28;20227;-88
2023/10/15 02:17:43;;;;;;;4.70;2.33;;;6.70;99.90;;;;;;2088832;28;20223;-88
2023/10/15 02:18:51;;;;;;;5.10;2.20;;;6.80;99.90;;;;;;2088383;28;20266;-87
2023/10/15 02:19:55;;;;;;;4.28;2.17;;;6.80;99.90;;;;;;2073456;28;20233;-88
2023/10/15 02:21:56;;;;;;;5.50;2.07;;;6.60;99.90;;;;;;2083374;28;20728;-88
2023/10/15 02:22:57;;;;;;;7.57;2.30;;;6.60;99.90;;;;;;2080340;28;20229;-88
2023/10/15 02:24:07;;;;;;;4.40;1.75;;;6.60;99.90;;;;;;2075054;28;20230;-87
2023/10/15 02:25:08;;;;;;;5.18;2.08;;;6.70;99.90;;;;;;2069502;28;20737;-88
2023/10/15 02:26:09;;;;;;;5.53;2.15;;;6.60;99.90;;;;;;2071476;28;20211;-88
2023/10/15 02:27:09;;;;;;;6.20;2.10;;;6.60;99.90;;;;;;2076521;28;20297;-88
2023/10/15 02:28:10;;;;;;;5.70;2.37;;;6.60;99.90;;;;;;2073349;28;20225;-88
2023/10/15 02:30:32;;;;;;;7.53;1.90;;;6.50;99.90;;;;;;2083222;28;20275;-87
2023/10/15 02:31:41;;;;;;;5.22;1.85;;;6.70;99.90;;;;;;2089316;28;20258;-88
2023/10/15 02:32:43;;;;;;;6.13;1.80;;;6.60;99.90;;;;;;2095656;28;20257;-88
2023/10/15 02:33:44;;;;;;;2.22;1.70;;;6.60;99.90;;;;;;2095301;28;20224;-88
2023/10/15 02:34:44;;;;;;;3.50;1.97;;;6.50;99.90;;;;;;2094077;28;20286;-88
2023/10/15 02:35:48;;;;;;;4.57;2.00;;;6.50;99.90;;;;;;2089090;28;20227;-88
2023/10/15 02:36:48;;;;;;;4.35;1.95;;;6.20;99.90;;;;;;2081332;28;20228;-87
2023/10/15 02:37:49;;;;;;;3.57;2.33;;;6.10;99.90;;;;;;2091952;28;20223;-88
2023/10/15 02:38:53;;;;;;;4.70;2.00;;;6.00;99.90;;;;;;2089866;28;20280;-88
2023/10/15 02:39:55;;;;;;;4.18;2.10;;;5.80;99.90;;;;;;2094500;28;20224;-87
2023/10/15 02:40:58;;;;;;;6.38;2.20;;;5.70;99.90;;;;;;2083392;28;20232;-88
2023/10/15 02:42:01;;;;;;;4.13;1.80;;;5.80;99.90;;;;;;2081447;28;20324;-87
2023/10/15 02:43:06;;;;;;;7.18;2.30;;;5.80;99.90;;;;;;2077821;28;20233;-88
2023/10/15 02:44:13;;;;;;;8.52;2.55;;;5.90;99.90;;;;;;2080942;28;20228;-88
2023/10/15 02:45:14;;;;;;;4.45;2.25;;;5.90;99.90;;;;;;2084230;28;20302;-88
2023/10/15 02:47:06;;;;;;;8.73;2.45;;;6.00;99.90;;;;;;2085368;28;20196;-88
2023/10/15 02:47:41;;;;;;;9.40;2.33;;;6.10;99.90;;;;;;2089268;28;20227;-87
2023/10/15 02:48:41;;;;;;;6.32;2.35;;;6.30;99.90;;;;;;2082930;28;20225;-87
2023/10/15 02:50:02;;;;;;;5.37;3.00;;;6.30;99.90;;;;;;2076949;28;20288;-87
2023/10/15 02:51:08;;;;;;;5.13;2.40;;;6.40;99.90;;;;;;2086123;28;20229;-88
2023/10/15 02:52:18;;;;;;;5.95;1.95;;;6.30;99.90;;;;;;2097486;28;20222;-88
2023/10/15 02:53:23;;;;;;;7.20;2.35;;;6.40;99.90;;;;;;2086334;28;20704;-88
2023/10/15 02:54:37;;;;;;;9.30;2.30;;;6.40;99.90;;;;;;2080633;28;20252;-88
2023/10/15 02:55:47;;;;;;;4.50;2.13;;;6.40;99.90;;;;;;2082142;28;20216;-87
2023/10/15 02:56:47;;;;;;;6.65;2.28;;;6.50;99.90;;;;;;2081373;28;20283;-87
2023/10/15 02:57:51;;;;;;;4.10;1.87;;;6.50;99.90;;;;;;2073635;28;20648;-88
2023/10/15 02:58:54;;;;;;;4.63;2.13;;;6.60;99.90;;;;;;2074043;28;20226;-88
2023/10/15 02:59:55;;;;;;;4.00;2.00;;;6.60;99.90;;;;;;2075840;28;20223;-88
2023/10/15 03:01:06;;;;;;;3.55;1.80;;;6.50;99.90;;;;;;2079289;28;20213;-88
2023/10/15 03:02:07;;;;;;;5.20;2.03;;;6.50;99.90;;;;;;2087758;28;20262;-88
2023/10/15 03:03:09;;;;;;;4.77;2.10;;;6.40;99.90;;;;;;2088911;28;20458;-87
2023/10/15 03:04:09;;;;;;;4.65;2.10;;;6.40;99.90;;;;;;2090777;28;20744;-88
2023/10/15 03:05:15;;;;;;;7.90;2.40;;;6.40;99.90;;;;;;2089489;28;20223;-88
2023/10/15 03:06:24;;;;;;;3.20;2.13;;;6.40;99.90;;;;;;2081427;28;20201;-88
2023/10/15 03:07:30;;;;;;;5.25;2.35;;;6.40;99.90;;;;;;2082655;28;20225;-87
2023/10/15 03:08:32;;;;;;;5.80;2.20;;;6.40;99.90;;;;;;2093213;28;20223;-87
2023/10/15 03:09:33;;;;;;;3.88;1.92;;;6.30;99.90;;;;;;2080981;28;20228;-88
2023/10/15 03:10:47;;;;;;;4.17;1.93;;;6.30;99.90;;;;;;2082555;28;20270;-88
2023/10/15 03:11:51;;;;;;;4.05;1.90;;;6.30;99.90;;;;;;2089694;28;20257;-88
2023/10/15 03:12:52;;;;;;;7.35;2.60;;;6.30;99.90;;;;;;2080287;28;20576;-88
2023/10/15 03:13:55;;;;;;;6.57;2.20;;;6.40;99.90;;;;;;2068403;28;20257;-88
2023/10/15 03:14:56;;;;;;;3.28;2.00;;;6.40;99.90;;;;;;2084064;28;20233;-88
2023/10/15 03:15:57;;;;;;;4.73;2.20;;;6.40;99.90;;;;;;2084256;28;20291;-88
2023/10/15 03:16:58;;;;;;;4.18;2.00;;;6.40;99.90;;;;;;2073519;28;20234;-88
2023/10/15 03:17:58;;;;;;;4.27;2.10;;;6.40;99.90;;;;;;2081716;28;20802;-88
2023/10/15 03:19:23;;;;;;;7.40;1.90;;;6.50;99.90;;;;;;2081275;28;20267;-88
2023/10/15 03:21:25;;;;;;;5.07;2.30;;;6.60;99.90;;;;;;2094457;28;20710;-88
2023/10/15 03:22:30;;;;;;;4.97;2.25;;;6.60;99.90;;;;;;2081449;28;20232;-87
2023/10/15 03:23:30;;;;;;;6.10;2.30;;;6.60;99.90;;;;;;2074170;28;20229;-87
2023/10/15 03:24:34;;;;;;;6.20;2.37;;;6.50;99.90;;;;;;2081977;28;20316;-87
2023/10/15 03:25:34;;;;;;;8.52;2.10;;;6.50;99.90;;;;;;2088015;28;20220;-87
2023/10/15 03:26:35;;;;;;;6.27;2.20;;;6.60;99.90;;;;;;2073151;28;20222;-87
2023/10/15 03:27:36;;;;;;;4.13;2.00;;;6.60;99.90;;;;;;2088775;28;20228;-87
2023/10/15 03:28:44;;;;;;;5.05;2.30;;;6.60;99.90;;;;;;2081069;28;20232;-87
2023/10/15 03:29:45;;;;;;;5.95;2.50;;;6.60;99.90;;;;;;2085971;28;20891;-87
2023/10/15 03:30:47;;;;;;;3.72;1.95;;;6.50;99.90;;;;;;2081829;28;20221;-88
2023/10/15 03:31:48;;;;;;;5.22;2.25;;;6.50;99.90;;;;;;2081445;28;20228;-87
2023/10/15 03:32:52;;;;;;;5.38;2.30;;;6.50;99.90;;;;;;2072748;28;20222;-88
2023/10/15 03:35:16;;;;;;;7.32;2.75;;;6.60;99.90;;;;;;2084296;28;20224;-88
2023/10/15 03:36:17;;;;;;;5.38;2.00;;;6.60;99.90;;;;;;2084573;28;20223;-88
2023/10/15 03:37:22;;;;;;;4.87;2.10;;;6.50;99.90;;;;;;2075072;28;20276;-87
2023/10/15 03:38:32;;;;;;;4.95;2.33;;;6.60;99.90;;;;;;2076135;28;20208;-88
2023/10/15 03:40:46;;;;;;;6.07;2.43;;;6.60;99.90;;;;;;2081012;28;20229;-88
2023/10/15 03:41:52;;;;;;;6.95;2.53;;;6.60;99.90;;;;;;2075273;28;20233;-88
2023/10/15 03:42:54;;;;;;;4.85;2.78;;;6.60;99.90;;;;;;2073652;28;20245;-88
2023/10/15 03:44:01;;;;;;;4.97;2.63;;;6.70;99.90;;;;;;2082236;28;20260;-88
2023/10/15 03:45:07;;;;;;;4.68;2.72;;;6.70;99.90;;;;;;2082102;28;20636;-88
2023/10/15 03:46:19;;;;;;;6.88;2.60;;;6.70;99.90;;;;;;2094591;28;20235;-88
2023/10/15 03:47:22;;;;;;;7.70;2.83;;;6.70;99.90;;;;;;2084161;28;20192;-88
2023/10/15 03:48:31;;;;;;;8.05;2.40;;;6.80;99.90;;;;;;2073935;28;20270;-88
2023/10/15 03:49:32;;;;;;;5.72;2.22;;;6.80;99.90;;;;;;2083449;28;20279;-88
2023/10/15 03:50:36;;;;;;;6.00;2.72;;;6.80;99.90;;;;;;2090125;28;20299;-88
2023/10/15 03:51:48;;;;;;;5.18;2.35;;;6.90;99.90;;;;;;2082772;28;20225;-88
2023/10/15 03:52:49;;;;;;;5.93;2.70;;;7.00;99.90;;;;;;2076958;28;20221;-88
2023/10/15 03:53:50;;;;;;;5.70;2.70;;;7.10;99.90;;;;;;2082756;28;20217;-88
2023/10/15 03:54:51;;;;;;;7.43;2.10;;;7.10;99.90;;;;;;2083178;28;20307;-88
2023/10/15 03:55:54;;;;;;;5.90;2.33;;;7.10;99.90;;;;;;2082224;28;20225;-88
2023/10/15 03:56:56;;;;;;;4.70;1.90;;;7.10;99.90;;;;;;2068334;28;20221;-88
2023/10/15 03:57:58;;;;;;;5.55;2.00;;;7.20;99.90;;;;;;2072099;28;20276;-88
2023/10/15 03:58:59;;;;;;;5.00;1.80;;;7.10;99.90;;;;;;2072079;28;20347;-88
2023/10/15 04:00:00;;;;;;;5.50;2.00;;;7.00;99.90;;;;;;2073307;28;20780;-88
2023/10/15 04:01:15;;;;;;;7.87;2.00;;;7.00;99.90;;;;;;2080319;28;20229;-88
2023/10/15 04:02:22;;;;;;;2.75;1.60;;;6.90;99.90;;;;;;2082181;28;20224;-88
2023/10/15 04:03:28;;;;;;;4.57;2.00;;;7.00;99.90;;;;;;2082302;28;20301;-88
2023/10/15 04:04:29;;;;;;;2.65;1.83;;;7.00;99.90;;;;;;2081584;28;20232;-88
2023/10/15 04:05:32;;;;;;;4.37;2.23;;;7.00;99.90;;;;;;2081448;28;20606;-88
2023/10/15 04:06:34;;;;;;;5.93;2.30;;;7.10;99.90;;;;;;2081127;28;20251;-88
2023/10/15 04:07:48;;;;;;;5.93;2.42;;;7.10;99.90;;;;;;2073684;28;20253;-89
2023/10/15 04:10:06;;;;;;;5.90;2.60;;;7.10;99.90;;;;;;2088217;28;20205;-88
2023/10/15 04:11:08;;;;;;;9.32;2.90;;;7.20;99.90;;;;;;2094840;28;20236;-89
2023/10/15 04:12:09;;;;;;;4.80;2.08;;;7.20;99.90;;;;;;2093272;28;20215;-89
2023/10/15 04:13:09;;;;;;;4.33;2.07;;;7.20;99.90;;;;;;2092574;28;20203;-89
2023/10/15 04:14:26;;;;;;;3.60;1.90;;;7.20;99.90;;;;;;2081033;28;20628;-88
2023/10/15 04:15:30;;;;;;;4.30;1.90;;;7.20;99.90;;;;;;2084054;28;20217;-88
2023/10/15 04:16:39;;;;;;;5.82;2.00;;;7.10;99.90;;;;;;2083025;28;20269;-89
2023/10/15 04:17:41;;;;;;;4.88;2.00;;;7.10;99.90;;;;;;2092248;28;20224;-88
2023/10/15 04:18:42;;;;;;;8.02;2.63;;;7.10;99.90;;;;;;2089883;28;20221;-87
2023/10/15 04:19:43;;;;;;;5.30;2.50;;;7.10;99.90;;;;;;2090387;28;20279;-89
2023/10/15 04:20:43;;;;;;;3.53;2.17;;;7.10;99.90;;;;;;2089102;28;20284;-88
2023/10/15 04:21:45;;;;;;;4.33;2.60;;;7.00;99.90;;;;;;2081943;28;20247;-89
2023/10/15 04:22:47;;;;;;;3.63;2.40;;;7.00;99.90;;;;;;2083134;28;20273;-89
2023/10/15 04:23:53;;;;;;;6.40;2.50;;;7.00;99.90;;;;;;2088894;28;20300;-88
2023/10/15 04:24:53;;;;;;;7.15;2.42;;;7.00;99.90;;;;;;2086320;28;20236;-88
2023/10/15 04:25:54;;;;;;;5.20;2.57;;;7.00;99.90;;;;;;2081704;28;20217;-89
2023/10/15 04:26:54;;;;;;;6.23;2.40;;;7.00;99.90;;;;;;2081696;28;20273;-86
2023/10/15 04:27:55;;;;;;;5.83;2.67;;;7.10;99.90;;;;;;2092413;28;20217;-88
2023/10/15 04:28:56;;;;;;;6.23;2.43;;;7.10;99.90;;;;;;2087638;28;20237;-88
2023/10/15 04:30:00;;;;;;;7.25;2.38;;;7.10;99.90;;;;;;2081885;28;20316;-88
2023/10/15 04:31:09;;;;;;;5.10;2.47;;;7.10;99.90;;;;;;2092508;28;20244;-88
2023/10/15 04:32:12;;;;;;;7.15;2.47;;;7.10;99.90;;;;;;2081754;28;20236;-88
2023/10/15 04:33:17;;;;;;;11.18;2.55;;;7.10;99.90;;;;;;2090302;28;20184;-89
2023/10/15 04:34:18;;;;;;;9.43;3.08;;;7.20;99.90;;;;;;2090026;28;20212;-87
2023/10/15 04:35:25;;;;;;;4.05;2.22;;;7.10;99.90;;;;;;2084540;28;20225;-87
2023/10/15 04:36:25;;;;;;;6.22;2.15;;;7.00;99.90;;;;;;2081008;28;20217;-88
2023/10/15 04:37:27;;;;;;;4.57;2.07;;;7.00;99.90;;;;;;2089314;28;20256;-88
2023/10/15 04:38:28;;;;;;;7.63;2.70;;;7.00;99.90;;;;;;2098642;28;20253;-88
2023/10/15 04:39:28;;;;;;;6.80;2.20;;;7.00;99.90;;;;;;2098153;28;20220;-87
2023/10/15 04:40:29;;;;;;;4.77;2.37;;;7.10;99.90;;;;;;2089776;28;20212;-88
2023/10/15 04:41:33;;;;;;;4.77;2.13;;;7.00;99.90;;;;;;2084169;28;20296;-88
2023/10/15 04:42:43;;;;;;;5.00;2.35;;;7.00;99.90;;;;;;2083117;28;20236;-88
2023/10/15 04:43:46;;;;;;;6.18;2.78;;;7.10;99.90;;;;;;2084694;28;20228;-88
2023/10/15 04:44:50;;;;;;;6.35;2.80;;;7.00;99.90;;;;;;2087617;28;20229;-87
2023/10/15 04:45:55;;;;;;;5.65;2.30;;;7.00;99.90;;;;;;2089100;28;20740;-88
2023/10/15 04:47:04;;;;;;;5.88;2.70;;;7.10;99.90;;;;;;2075746;28;20221;-89
2023/10/15 04:48:13;;;;;;;8.02;2.50;;;7.00;99.90;;;;;;2081172;28;20221;-89
2023/10/15 04:49:17;;;;;;;4.82;2.25;;;7.10;99.90;;;;;;2081131;28;20185;-88
2023/10/15 04:50:18;;;;;;;6.00;3.10;;;7.00;99.90;;;;;;2087577;28;20192;-88
2023/10/15 04:51:18;;;;;;;5.70;2.70;;;6.90;99.90;;;;;;2088592;28;20205;-89
2023/10/15 04:52:19;;;;;;;7.07;2.50;;;6.80;99.90;;;;;;2074011;28;20189;-88
2023/10/15 04:54:23;;;;;;;6.33;2.23;;;6.80;99.90;;;;;;2087382;28;20282;-88
2023/10/15 04:55:26;;;;;;;5.23;2.40;;;6.80;99.90;;;;;;2085446;28;20271;-89
2023/10/15 04:56:26;;;;;;;7.43;2.60;;;6.80;99.90;;;;;;2074532;28;20642;-88
2023/10/15 04:57:28;;;;;;;10.30;3.30;;;6.70;99.90;;;;;;2081793;28;20229;-88
2023/10/15 04:58:29;;;;;;;12.98;7.07;;;6.70;99.90;;;;;;2088521;28;20231;-88
2023/10/15 04:59:29;;;;;;;16.33;8.30;;;6.70;99.90;;;;;;2081484;28;20286;-88
2023/10/15 05:00:30;;;;;;;13.60;7.50;;;6.70;99.90;;;;;;2073119;28;20244;-88
2023/10/15 05:01:33;;;;;;;13.87;6.80;;;6.70;99.90;;;;;;2073485;28;20310;-88
2023/10/15 05:02:34;;;;;;;10.63;7.15;;;6.70;99.90;;;;;;2074912;28;20323;-88
2023/10/15 05:03:38;;;;;;;8.80;5.85;;;6.70;99.90;;;;;;2080659;28;20236;-88
2023/10/15 05:04:39;;;;;;;8.38;5.38;;;6.60;99.90;;;;;;2082070;28;20233;-88
2023/10/15 05:05:42;;;;;;;7.53;5.00;;;6.60;99.90;;;;;;2082343;28;20221;-88
2023/10/15 05:06:42;;;;;;;10.90;5.90;;;6.70;99.90;;;;;;2081728;28;20299;-88
2023/10/15 05:07:43;;;;;;;10.00;5.43;;;6.80;99.90;;;;;;2084823;28;20224;-88
2023/10/15 05:08:47;;;;;;;11.67;6.33;;;6.80;99.90;;;;;;2083273;28;20220;-88
2023/10/15 05:09:48;;;;;;;8.57;4.80;;;6.90;99.90;;;;;;2080749;28;20216;-88
2023/10/15 05:10:51;;;;;;;8.80;5.00;;;7.00;99.90;;;;;;2072144;28;20248;-88
2023/10/15 05:11:53;;;;;;;8.73;5.55;;;7.00;99.90;;;;;;2084291;28;20233;-88
2023/10/15 05:12:53;;;;;;;9.20;5.82;;;7.00;99.90;;;;;;2097214;28;20712;-88
2023/10/15 05:13:54;;;;;;;7.40;4.97;;;7.10;99.90;;;;;;2084433;28;20229;-88
2023/10/15 05:14:55;;;;;;;10.67;5.57;;;7.20;99.90;;;;;;2080163;28;20229;-88
2023/10/15 05:15:56;;;;;;;9.07;5.57;;;7.20;99.90;;;;;;2085986;28;20239;-88
2023/10/15 05:16:59;;;;;;;7.45;4.70;;;7.30;99.90;;;;;;2083299;28;20472;-88
2023/10/15 05:18:00;;;;;;;6.80;3.60;;;7.30;99.90;;;;;;2077983;28;20259;-88
2023/10/15 05:19:01;;;;;;;5.43;3.70;;;7.30;99.90;;;;;;2074789;28;20229;-88
2023/10/15 05:20:03;;;;;;;5.30;3.13;;;7.30;99.90;;;;;;2089103;28;20235;-88
2023/10/15 05:21:03;;;;;;;5.13;3.17;;;7.30;99.90;;;;;;2083516;28;20237;-89
2023/10/15 05:22:05;;;;;;;7.50;2.90;;;7.30;99.90;;;;;;2072605;28;20198;-88
2023/10/15 05:23:06;;;;;;;6.05;3.47;;;7.30;99.90;;;;;;2072586;28;20194;-88
2023/10/15 05:24:07;;;;;;;5.33;2.93;;;7.30;99.90;;;;;;2085437;28;20261;-89
2023/10/15 05:25:20;;;;;;;5.80;4.20;;;7.40;99.90;;;;;;2084969;28;20603;-88
2023/10/15 05:26:25;;;;;;;6.47;3.50;;;7.40;99.90;;;;;;2083217;28;20283;-90
2023/10/15 05:27:26;;;;;;;8.38;3.92;;;7.40;99.90;;;;;;2078985;28;20252;-89
2023/10/15 05:28:26;;;;;;;5.20;3.40;;;7.40;99.90;;;;;;2080053;28;20236;-89
2023/10/15 05:29:27;;;;;;;5.57;3.83;;;7.40;99.90;;;;;;2079783;28;20292;-88
2023/10/15 05:30:27;;;;;;;7.17;3.87;;;7.40;99.90;;;;;;2086366;28;20232;-88
2023/10/15 05:31:28;;;;;;;7.63;3.80;;;7.30;99.90;;;;;;2088844;28;20232;-88
2023/10/15 05:32:29;;;;;;;4.87;2.90;;;7.20;99.90;;;;;;2089118;28;20327;-89
2023/10/15 05:33:29;;;;;;;3.40;2.63;;;7.20;99.90;;;;;;2081085;28;20305;-89
2023/10/15 05:34:30;;;;;;;5.33;2.53;;;7.30;99.90;;;;;;2081112;28;20256;-89
2023/10/15 05:35:31;;;;;;;6.97;2.73;;;7.30;99.90;;;;;;2089964;28;20250;-89
2023/10/15 05:36:32;;;;;;;6.90;2.95;;;7.30;99.90;;;;;;2093109;28;20695;-89
2023/10/15 05:37:32;;;;;;;7.63;2.40;;;7.30;99.90;;;;;;2089392;28;20286;-89
2023/10/15 05:38:33;;;;;;;5.67;2.20;;;7.30;99.90;;;;;;2081923;28;20256;-88
2023/10/15 05:39:33;;;;;;;8.40;2.67;;;7.30;99.90;;;;;;2081871;28;20772;-89
2023/10/15 05:40:35;;;;;;;7.33;2.50;;;7.40;99.90;;;;;;2095217;28;20302;-88
2023/10/15 05:41:37;;;;;;;5.88;2.50;;;7.40;99.90;;;;;;2080996;28;20234;-89
2023/10/15 05:42:38;;;;;;;7.30;2.60;;;7.50;99.90;;;;;;2081692;28;20228;-89
2023/10/15 05:43:38;;;;;;;5.57;2.87;;;7.50;99.90;;;;;;2081560;28;20227;-89
2023/10/15 05:44:39;;;;;;;6.23;2.73;;;7.60;99.90;;;;;;2088147;28;20629;-89
2023/10/15 05:45:39;;;;;;;9.43;3.40;;;7.60;99.90;;;;;;2067522;28;20226;-89
2023/10/15 05:46:40;;;;;;;6.53;2.97;;;7.60;99.90;;;;;;2081551;28;20234;-89
2023/10/15 05:47:44;;;;;;;5.73;2.83;;;7.60;99.90;;;;;;2081515;28;20242;-89
2023/10/15 05:48:45;;;;;;;4.57;2.67;;;7.50;99.90;;;;;;2087699;28;20231;-89
2023/10/15 05:49:45;;;;;;;6.17;2.70;;;7.50;99.90;;;;;;2081293;28;20244;-89
2023/10/15 05:50:48;;;;;;;3.80;3.00;;;7.50;99.90;;;;;;2089949;28;20267;-89